Puntzi Mountain, Canada
Current Conditions -  °F | °C
As of 2:00 AM on Friday 24 Oct 2014 (Local Time) from CYWL Reporting Station
Few Clouds Few Clouds  
Wind Chill: 34°   Ceiling: Unl
Heat Index: 34°   Visibility: 15mi
Dew Point: 32°   Wind: 3mph
Humidity: 93%   Direction: 130°SE
Pressure: 29.88"   Gusts: NA
Location:  52.12°N, 124.13°W
Report Text: CYWL 240900Z 13003KT 15SM FEW050 FEW120 01/00 A2988 RMK SC1AC1 SLP146
Loading
Personal Weather Stations






























Interactive Weather Map New forecast layout! Learn more

10-Day Weather Forecast

Advertisements
Track Severe Weather on mobile